createdAt,value
2018-04-25T00:00:26.089Z,12.04
2018-04-25T00:02:53.721Z,12.03
2018-04-25T00:05:22.203Z,11.99
2018-04-25T00:07:49.869Z,11.93
2018-04-25T00:10:17.529Z,11.91
2018-04-25T00:12:45.119Z,11.91
2018-04-25T00:15:12.757Z,11.90
2018-04-25T00:17:41.233Z,11.87
2018-04-25T00:20:09.646Z,11.86
2018-04-25T00:22:37.284Z,11.86
2018-04-25T00:25:04.911Z,11.85
2018-04-25T00:27:32.508Z,11.85
2018-04-25T00:30:00.086Z,11.82
2018-04-25T00:32:27.737Z,11.99
2018-04-25T00:34:56.241Z,11.91
2018-04-25T00:37:24.607Z,11.84
2018-04-25T00:39:52.308Z,11.77
2018-04-25T00:42:19.885Z,11.78
2018-04-25T00:44:47.464Z,11.73
2018-04-25T00:47:15.041Z,11.73
2018-04-25T00:49:42.709Z,11.71
2018-04-25T00:52:10.291Z,11.69
2018-04-25T00:54:37.897Z,11.68
2018-04-25T00:57:05.473Z,11.68
2018-04-25T00:59:33.150Z,11.70
2018-04-25T01:02:00.733Z,11.77
2018-04-25T01:04:29.292Z,11.77
2018-04-25T01:06:57.673Z,11.82
2018-04-25T01:09:25.283Z,11.78
2018-04-25T01:11:53.893Z,11.79
2018-04-25T01:14:21.489Z,11.79
2018-04-25T01:16:49.098Z,11.74
2018-04-25T01:19:16.718Z,11.76
2018-04-25T01:21:44.368Z,11.75
2018-04-25T01:24:11.950Z,11.75
2018-04-25T01:26:39.597Z,11.76
2018-04-25T01:29:07.181Z,11.81
2018-04-25T01:31:37.673Z,11.83
2018-04-25T01:34:06.881Z,11.89
2018-04-25T01:36:37.936Z,11.86
2018-04-25T01:39:09.477Z,11.85
2018-04-25T01:41:37.059Z,11.84
2018-04-25T01:44:08.530Z,11.87
2018-04-25T01:46:36.112Z,11.88
2018-04-25T01:49:13.173Z,11.85
2018-04-25T01:51:52.493Z,11.82
2018-04-25T01:54:31.858Z,11.82
2018-04-25T01:57:11.174Z,11.99
2018-04-25T01:59:50.509Z,11.89
2018-04-25T02:02:17.550Z,11.87
2018-04-25T02:04:45.129Z,11.85
2018-04-25T02:07:13.488Z,11.87
2018-04-25T02:09:41.103Z,11.84
2018-04-25T02:12:08.685Z,11.88
2018-04-25T02:14:36.293Z,11.85
2018-04-25T02:17:03.872Z,11.87
2018-04-25T02:19:31.502Z,11.88
2018-04-25T02:21:59.091Z,11.84
2018-04-25T02:24:26.682Z,11.93
2018-04-25T02:26:54.269Z,11.93
2018-04-25T02:29:21.854Z,11.99
2018-04-25T02:31:49.489Z,11.93
2018-04-25T02:34:17.069Z,11.84
2018-04-25T02:36:44.687Z,11.93
2018-04-25T02:39:12.306Z,11.89
2018-04-25T02:41:39.889Z,11.97
2018-04-25T02:44:07.506Z,11.96
2018-04-25T02:46:35.082Z,11.94
2018-04-25T02:49:02.711Z,11.96
2018-04-25T02:51:30.311Z,12.06
2018-04-25T02:53:57.923Z,11.94
2018-04-25T02:56:25.580Z,11.97
2018-04-25T02:58:53.176Z,11.96
2018-04-25T03:01:20.797Z,11.86
2018-04-25T03:03:48.409Z,11.78
2018-04-25T03:06:16.058Z,11.79
2018-04-25T03:08:43.677Z,11.77
2018-04-25T03:11:11.268Z,11.68
2018-04-25T03:13:38.882Z,11.76
2018-04-25T03:16:06.469Z,11.80
2018-04-25T03:18:34.051Z,11.75
2018-04-25T03:21:01.634Z,11.73
2018-04-25T03:23:29.252Z,11.69
2018-04-25T03:25:56.837Z,11.88
2018-04-25T03:28:24.422Z,11.94
2018-04-25T03:30:52.045Z,11.89
2018-04-25T03:33:19.633Z,11.88
2018-04-25T03:35:47.297Z,12.04
2018-04-25T03:38:14.961Z,12.05
2018-04-25T03:40:42.541Z,11.96
2018-04-25T03:43:10.121Z,11.89
2018-04-25T03:45:37.710Z,11.93
2018-04-25T03:48:05.289Z,11.88
2018-04-25T03:50:33.044Z,11.82
2018-04-25T03:53:00.614Z,12.05
2018-04-25T03:55:28.239Z,12.03
2018-04-25T03:57:55.831Z,11.94
2018-04-25T04:00:23.421Z,11.93
2018-04-25T04:02:51.002Z,11.91
2018-04-25T04:05:18.580Z,12.03
2018-04-25T04:07:46.157Z,11.99
2018-04-25T04:10:14.683Z,12.04
2018-04-25T04:12:42.261Z,12.13
2018-04-25T04:15:09.841Z,12.28
2018-04-25T04:17:37.422Z,12.24
2018-04-25T04:20:05.140Z,12.21
2018-04-25T04:22:32.721Z,12.23
2018-04-25T04:25:01.310Z,12.30
2018-04-25T04:27:28.894Z,12.41
2018-04-25T04:29:56.468Z,12.28
2018-04-25T04:32:24.050Z,12.29
2018-04-25T04:34:51.673Z,12.32
2018-04-25T04:37:19.258Z,12.46
2018-04-25T04:39:46.841Z,12.45
2018-04-25T04:42:14.421Z,12.46
2018-04-25T04:44:42.029Z,12.49
2018-04-25T04:47:09.610Z,12.46
2018-04-25T04:49:38.140Z,12.63
2018-04-25T04:52:05.751Z,12.62
2018-04-25T04:54:33.437Z,12.74
2018-04-25T04:57:01.065Z,12.80
2018-04-25T04:59:28.649Z,12.77
2018-04-25T05:01:56.320Z,12.74
2018-04-25T05:04:23.962Z,12.82
2018-04-25T05:06:51.710Z,12.90
2018-04-25T05:09:20.262Z,12.93
2018-04-25T05:11:47.934Z,13.05
2018-04-25T05:14:15.567Z,13.07
2018-04-25T05:16:43.161Z,13.26
2018-04-25T05:19:10.889Z,13.33
2018-04-25T05:21:38.474Z,13.44
2018-04-25T05:24:06.113Z,13.46
2018-04-25T05:26:33.778Z,13.59
2018-04-25T05:29:01.369Z,13.64
2018-04-25T05:31:29.004Z,13.72
2018-04-25T05:33:56.601Z,13.85
2018-04-25T05:36:24.219Z,13.98
2018-04-25T05:38:51.801Z,14.15
2018-04-25T05:41:19.421Z,14.12
2018-04-25T05:43:47.003Z,14.16
2018-04-25T05:46:14.678Z,14.30
2018-04-25T05:48:42.265Z,14.36
2018-04-25T05:51:09.862Z,14.43
2018-04-25T05:53:37.442Z,14.45
2018-04-25T05:56:05.029Z,14.55
2018-04-25T05:58:32.637Z,14.70
2018-04-25T06:01:00.224Z,14.96
2018-04-25T06:03:27.807Z,14.90
2018-04-25T06:05:55.426Z,14.93
2018-04-25T06:08:23.004Z,14.91
2018-04-25T06:10:50.615Z,14.96
2018-04-25T06:13:18.242Z,15.03
2018-04-25T06:15:45.908Z,15.08
2018-04-25T06:18:13.572Z,15.16
2018-04-25T06:20:41.958Z,15.19
2018-04-25T06:23:09.542Z,15.18
2018-04-25T06:25:37.165Z,15.32
2018-04-25T06:28:04.792Z,15.40
2018-04-25T06:30:32.370Z,15.50
2018-04-25T06:32:59.956Z,15.58
2018-04-25T06:35:27.540Z,15.73
2018-04-25T06:37:55.153Z,15.88
2018-04-25T06:40:22.733Z,15.75
2018-04-25T06:42:50.310Z,15.71
2018-04-25T06:45:17.897Z,15.75
2018-04-25T06:47:45.481Z,15.86
2018-04-25T06:50:13.126Z,16.01
2018-04-25T06:52:40.752Z,16.10
2018-04-25T06:55:08.345Z,16.08
2018-04-25T06:57:35.929Z,15.97
2018-04-25T07:00:03.536Z,16.03
2018-04-25T07:02:31.115Z,15.98
2018-04-25T07:04:58.703Z,15.90
2018-04-25T07:07:26.289Z,15.96
2018-04-25T07:09:53.877Z,15.92
2018-04-25T07:12:21.459Z,15.98
2018-04-25T07:14:49.078Z,16.07
2018-04-25T07:17:16.769Z,16.06
2018-04-25T07:19:44.351Z,16.19
2018-04-25T07:22:11.926Z,16.10
2018-04-25T07:24:39.515Z,16.12
2018-04-25T07:27:07.099Z,16.18
2018-04-25T07:29:34.689Z,16.09
2018-04-25T07:32:02.323Z,16.03
2018-04-25T07:34:38.080Z,16.02
2018-04-25T07:37:05.692Z,16.07
2018-04-25T07:39:33.269Z,16.06
2018-04-25T07:42:00.965Z,15.98
2018-04-25T07:44:28.481Z,15.89
2018-04-25T07:46:56.097Z,15.84
2018-04-25T07:49:23.665Z,15.73
2018-04-25T07:51:51.282Z,15.64
2018-04-25T07:54:18.862Z,15.54
2018-04-25T07:56:46.436Z,15.57
2018-04-25T07:59:15.923Z,15.49
2018-04-25T08:01:43.501Z,15.42
2018-04-25T08:04:11.115Z,15.43
2018-04-25T08:06:38.703Z,15.44
2018-04-25T08:09:06.314Z,15.44
2018-04-25T08:11:33.900Z,15.45
2018-04-25T08:14:13.260Z,15.38
2018-04-25T08:16:52.668Z,15.34
2018-04-25T08:19:31.984Z,15.43
2018-04-25T08:21:59.550Z,15.41
2018-04-25T08:24:27.122Z,15.35
2018-04-25T08:26:54.734Z,15.35
2018-04-25T08:29:22.306Z,15.52
2018-04-25T08:31:49.928Z,15.60
2018-04-25T08:34:17.616Z,15.90
2018-04-25T08:36:45.181Z,16.28
2018-04-25T08:39:12.788Z,16.74
2018-04-25T08:41:40.396Z,17.02
2018-04-25T08:44:08.004Z,17.37
2018-04-25T08:46:35.584Z,17.40
2018-04-25T08:49:03.176Z,17.39
2018-04-25T08:51:30.754Z,17.24
2018-04-25T08:53:58.338Z,17.33
2018-04-25T08:56:25.920Z,17.17
2018-04-25T08:58:53.531Z,16.97
2018-04-25T09:01:21.358Z,16.84
2018-04-25T09:03:48.932Z,16.73
2018-04-25T09:06:16.541Z,16.68
2018-04-25T09:08:44.114Z,16.62
2018-04-25T09:11:11.722Z,16.75
2018-04-25T09:13:39.302Z,16.99
2018-04-25T09:16:06.915Z,17.22
2018-04-25T09:18:34.493Z,17.60
2018-04-25T09:21:02.097Z,17.97
2018-04-25T09:23:29.676Z,18.15
2018-04-25T09:25:57.246Z,18.48
2018-04-25T09:28:24.821Z,18.74
2018-04-25T09:30:52.406Z,18.88
2018-04-25T09:33:20.026Z,19.18
2018-04-25T09:35:47.633Z,19.53
2018-04-25T09:38:15.214Z,19.57
2018-04-25T09:40:42.822Z,19.81
2018-04-25T09:43:10.401Z,20.26
2018-04-25T09:45:37.979Z,20.56
2018-04-25T09:48:05.554Z,20.54
2018-04-25T09:50:33.139Z,20.47
2018-04-25T09:53:00.714Z,20.57
2018-04-25T09:55:28.294Z,20.90
2018-04-25T09:57:56.045Z,21.25
2018-04-25T10:03:23.468Z,20.88
2018-04-25T10:05:51.126Z,20.79
2018-04-25T10:08:18.752Z,20.45
2018-04-25T10:10:46.358Z,20.42
2018-04-25T10:13:13.951Z,20.24
2018-04-25T10:15:41.531Z,20.50
2018-04-25T10:18:09.153Z,20.88
2018-04-25T10:20:36.729Z,20.91
2018-04-25T10:23:04.314Z,21.12
2018-04-25T10:25:31.926Z,20.98
2018-04-25T10:27:59.506Z,20.99
2018-04-25T10:30:27.087Z,20.96
2018-04-25T10:32:54.692Z,20.84
2018-04-25T10:35:22.313Z,20.77
2018-04-25T10:37:49.881Z,20.94
2018-04-25T10:40:17.458Z,20.90
2018-04-25T10:42:45.027Z,20.60
2018-04-25T10:45:12.601Z,20.94
2018-04-25T10:47:40.252Z,20.91
2018-04-25T10:50:07.827Z,20.77
2018-04-25T10:52:35.392Z,20.87
2018-04-25T10:55:02.970Z,21.04
2018-04-25T10:57:30.613Z,21.05
2018-04-25T10:59:58.181Z,20.93
2018-04-25T11:02:25.805Z,21.01
2018-04-25T11:04:53.361Z,20.83
2018-04-25T11:07:20.990Z,20.73
2018-04-25T11:09:48.554Z,20.52
2018-04-25T11:12:16.131Z,20.32
2018-04-25T11:14:44.439Z,20.37
2018-04-25T11:17:12.022Z,20.29
2018-04-25T11:19:39.632Z,20.26
2018-04-25T11:22:07.206Z,20.26
2018-04-25T11:24:34.858Z,20.45
2018-04-25T11:27:02.425Z,20.64
2018-04-25T11:29:30.007Z,20.55
2018-04-25T11:31:57.634Z,20.35
2018-04-25T11:34:25.186Z,20.08
2018-04-25T11:36:53.590Z,19.77
2018-04-25T11:39:21.169Z,19.44
2018-04-25T11:41:48.751Z,19.30
2018-04-25T11:44:16.373Z,19.13
2018-04-25T11:46:43.956Z,18.76
2018-04-25T11:49:11.535Z,18.07
2018-04-25T11:51:39.117Z,17.73
2018-04-25T11:54:06.689Z,17.30
2018-04-25T11:56:34.306Z,16.93
2018-04-25T11:59:01.887Z,16.41
2018-04-25T12:01:29.472Z,16.07
2018-04-25T12:03:57.105Z,15.94
2018-04-25T12:06:24.688Z,15.47
2018-04-25T12:08:52.264Z,15.55
2018-04-25T12:11:19.845Z,15.88
2018-04-25T12:13:47.430Z,16.50
2018-04-25T12:16:15.010Z,16.77
2018-04-25T12:18:42.602Z,16.94
2018-04-25T12:21:10.185Z,16.71
2018-04-25T12:23:37.757Z,16.82
2018-04-25T12:26:05.337Z,17.03
2018-04-25T12:28:32.911Z,17.09
2018-04-25T12:31:00.485Z,17.06
2018-04-25T12:33:28.098Z,17.26
2018-04-25T12:35:55.762Z,17.30
2018-04-25T12:38:23.289Z,17.43
2018-04-25T12:40:51.543Z,17.53
2018-04-25T12:43:19.406Z,17.54
2018-04-25T12:45:46.987Z,17.34
2018-04-25T12:48:14.630Z,17.34
2018-04-25T12:50:42.326Z,17.33
2018-04-25T12:53:09.963Z,17.54
2018-04-25T12:55:38.319Z,17.80
2018-04-25T12:58:05.968Z,17.69
2018-04-25T13:00:33.586Z,17.96
2018-04-25T13:03:01.175Z,18.20
2018-04-25T13:05:28.787Z,18.40
2018-04-25T13:07:56.361Z,18.79
2018-04-25T13:10:24.007Z,19.26
2018-04-25T13:12:51.591Z,19.27
2018-04-25T13:15:19.193Z,19.16
2018-04-25T13:17:46.766Z,18.91
2018-04-25T13:20:14.345Z,18.99
2018-04-25T13:22:41.917Z,18.40
2018-04-25T13:25:09.488Z,18.33
2018-04-25T13:27:37.070Z,18.39
2018-04-25T13:30:04.650Z,18.31
2018-04-25T13:32:32.240Z,18.39
2018-04-25T13:34:59.813Z,18.32
2018-04-25T13:37:27.414Z,18.38
2018-04-25T13:39:55.108Z,18.57
2018-04-25T13:42:22.749Z,18.84
2018-04-25T13:44:50.307Z,19.01
2018-04-25T13:47:17.889Z,19.03
2018-04-25T13:49:45.465Z,18.78
2018-04-25T13:52:13.983Z,18.66
2018-04-25T13:54:41.641Z,18.82
2018-04-25T13:57:09.218Z,18.74
2018-04-25T13:59:36.798Z,18.90
2018-04-25T14:02:04.502Z,18.69
2018-04-25T14:04:32.233Z,18.73
2018-04-25T14:06:59.856Z,18.78
2018-04-25T14:09:27.521Z,18.73
2018-04-25T14:11:55.225Z,18.75
2018-04-25T14:14:22.797Z,18.87
2018-04-25T14:16:50.370Z,19.14
2018-04-25T14:19:17.969Z,19.16
2018-04-25T14:21:45.544Z,19.02
2018-04-25T14:24:13.226Z,18.54
2018-04-25T14:26:40.803Z,18.28
2018-04-25T14:29:08.384Z,18.18
2018-04-25T14:31:36.872Z,18.21
2018-04-25T14:34:04.449Z,18.03
2018-04-25T14:36:32.056Z,18.05
2018-04-25T14:38:59.634Z,18.23
2018-04-25T14:41:27.242Z,18.13
2018-04-25T14:43:55.625Z,17.88
2018-04-25T14:46:23.202Z,17.73
2018-04-25T14:48:50.778Z,17.39
2018-04-25T14:51:18.356Z,17.33
2018-04-25T14:53:45.929Z,17.07
2018-04-25T14:56:13.502Z,16.86
2018-04-25T14:58:41.083Z,16.56
2018-04-25T15:01:08.664Z,16.36
2018-04-25T15:03:36.247Z,16.36
2018-04-25T15:08:37.626Z,16.38
2018-04-25T15:11:05.210Z,16.44
2018-04-25T15:13:32.809Z,17.04
2018-04-25T15:16:00.383Z,18.01
2018-04-25T15:18:27.952Z,18.54
2018-04-25T15:20:55.530Z,18.16
2018-04-25T15:23:23.106Z,18.56
2018-04-25T15:25:50.682Z,18.26
2018-04-25T15:28:18.262Z,18.08
2018-04-25T15:30:45.841Z,18.21
2018-04-25T15:33:13.417Z,18.20
2018-04-25T15:35:40.988Z,18.40
2018-04-25T15:38:08.561Z,17.80
2018-04-25T15:40:36.141Z,17.63
2018-04-25T15:43:03.714Z,17.38
2018-04-25T15:45:31.285Z,17.44
2018-04-25T15:47:58.865Z,17.32
2018-04-25T15:50:26.433Z,17.60
2018-04-25T15:52:54.005Z,17.93
2018-04-25T15:55:21.586Z,17.81
2018-04-25T15:57:49.873Z,17.76
2018-04-25T16:00:17.454Z,17.31
2018-04-25T16:02:45.100Z,17.04
2018-04-25T16:05:12.672Z,16.60
2018-04-25T16:07:40.246Z,16.22
2018-04-25T16:10:07.822Z,16.14
2018-04-25T16:12:35.455Z,15.95
2018-04-25T16:15:03.018Z,15.94
2018-04-25T16:17:30.609Z,15.93
2018-04-25T16:19:58.189Z,15.66
2018-04-25T16:22:25.884Z,15.40
2018-04-25T16:24:53.498Z,15.25
2018-04-25T16:27:21.075Z,15.09
2018-04-25T16:29:49.004Z,14.92
2018-04-25T16:32:16.583Z,14.74
2018-04-25T16:34:44.195Z,14.60
2018-04-25T16:37:11.864Z,14.68
2018-04-25T16:39:39.440Z,14.43
2018-04-25T16:42:07.018Z,14.56
2018-04-25T16:44:34.610Z,14.46
2018-04-25T16:47:02.261Z,14.44
2018-04-25T16:49:29.842Z,14.37
2018-04-25T16:51:57.418Z,14.37
2018-04-25T16:54:24.994Z,14.31
2018-04-25T16:56:52.587Z,14.35
2018-04-25T16:59:20.165Z,14.21
2018-04-25T17:01:47.751Z,14.27
2018-04-25T17:04:15.369Z,14.18
2018-04-25T17:06:42.955Z,14.19
2018-04-25T17:09:10.590Z,14.13
2018-04-25T17:11:38.173Z,13.98
2018-04-25T17:14:05.757Z,13.86
2018-04-25T17:16:33.343Z,13.91
2018-04-25T17:19:00.922Z,13.84
2018-04-25T17:21:28.497Z,13.76
2018-04-25T17:23:56.099Z,13.75
2018-04-25T17:26:23.674Z,13.72
2018-04-25T17:28:51.250Z,13.59
2018-04-25T17:31:18.894Z,13.55
2018-04-25T17:33:46.466Z,13.46
2018-04-25T17:36:14.054Z,13.41
2018-04-25T17:38:41.658Z,13.33
2018-04-25T17:41:09.275Z,13.20
2018-04-25T17:43:36.951Z,13.11
2018-04-25T17:46:04.530Z,13.14
2018-04-25T17:48:32.303Z,13.00
2018-04-25T17:50:59.884Z,12.98
2018-04-25T17:53:27.465Z,12.91
2018-04-25T17:55:55.067Z,12.85
2018-04-25T17:58:22.727Z,12.76
2018-04-25T18:00:50.310Z,12.71
2018-04-25T18:03:18.041Z,12.64
2018-04-25T18:05:45.577Z,12.64
2018-04-25T18:08:14.192Z,12.48
2018-04-25T18:10:41.771Z,12.43
2018-04-25T18:13:09.379Z,12.43
2018-04-25T18:15:37.013Z,12.32
2018-04-25T18:18:04.593Z,12.25
2018-04-25T18:20:32.167Z,12.22
2018-04-25T18:22:59.766Z,11.98
2018-04-25T18:25:27.360Z,12.01
2018-04-25T18:27:55.011Z,11.93
2018-04-25T18:30:22.726Z,11.94
2018-04-25T18:32:50.271Z,11.91
2018-04-25T18:35:17.886Z,11.85
2018-04-25T18:37:45.470Z,11.77
2018-04-25T18:40:13.489Z,11.78
2018-04-25T18:42:41.229Z,11.56
2018-04-25T18:45:08.941Z,11.49
2018-04-25T18:47:36.606Z,11.48
2018-04-25T18:50:04.305Z,11.47
2018-04-25T18:52:31.986Z,11.44
2018-04-25T18:54:59.694Z,11.34
2018-04-25T18:57:27.395Z,11.35
2018-04-25T18:59:55.022Z,11.43
2018-04-25T19:02:22.617Z,11.33
2018-04-25T19:04:50.201Z,11.38
2018-04-25T19:07:17.780Z,11.13
2018-04-25T19:09:45.358Z,11.05
2018-04-25T19:12:12.945Z,10.97
2018-04-25T19:14:40.593Z,10.89
2018-04-25T19:17:08.174Z,10.87
2018-04-25T19:19:35.780Z,10.91
2018-04-25T19:22:03.411Z,10.76
2018-04-25T19:24:30.994Z,10.73
2018-04-25T19:26:58.595Z,10.60
2018-04-25T19:29:26.259Z,10.55
2018-04-25T19:31:53.922Z,10.46
2018-04-25T19:34:21.533Z,10.44
2018-04-25T19:36:49.116Z,10.32
2018-04-25T19:39:17.610Z,10.28
2018-04-25T19:41:45.190Z,10.31
2018-04-25T19:44:13.068Z,10.29
2018-04-25T19:46:40.645Z,10.19
2018-04-25T19:49:08.228Z,10.16
2018-04-25T19:51:35.811Z,10.13
2018-04-25T19:54:03.399Z,10.01
2018-04-25T19:56:30.970Z,10.05
2018-04-25T19:58:58.556Z,9.98
2018-04-25T20:01:26.219Z,9.99
2018-04-25T20:03:53.846Z,9.91
2018-04-25T20:06:21.427Z,10.00
2018-04-25T20:08:49.123Z,10.01
2018-04-25T20:11:16.701Z,10.05
2018-04-25T20:13:50.650Z,10.02
2018-04-25T20:16:18.265Z,10.21
2018-04-25T20:18:45.842Z,10.10
2018-04-25T20:21:13.420Z,10.01
2018-04-25T20:23:41.138Z,10.10
2018-04-25T20:26:09.541Z,10.00
2018-04-25T20:28:37.116Z,9.91
2018-04-25T20:31:04.740Z,9.91
2018-04-25T20:33:33.053Z,9.79
2018-04-25T20:36:01.413Z,9.75
2018-04-25T20:38:29.849Z,9.74
2018-04-25T20:40:57.425Z,9.68
2018-04-25T20:43:25.066Z,9.60
2018-04-25T20:45:52.641Z,9.65
2018-04-25T20:48:20.210Z,9.63
2018-04-25T20:50:47.828Z,9.58
2018-04-25T20:53:16.131Z,9.63
2018-04-25T20:55:43.707Z,9.50
2018-04-25T20:58:11.350Z,9.50
2018-04-25T21:00:38.950Z,9.44
2018-04-25T21:03:06.527Z,9.44
2018-04-25T21:05:34.130Z,9.27
2018-04-25T21:08:01.706Z,9.24
2018-04-25T21:10:29.283Z,9.26
2018-04-25T21:12:56.894Z,9.22
2018-04-25T21:15:24.498Z,9.12
2018-04-25T21:17:52.075Z,9.11
2018-04-25T21:20:19.738Z,9.03
2018-04-25T21:22:47.315Z,9.02
2018-04-25T21:25:14.931Z,9.03
2018-04-25T21:27:42.512Z,8.99
2018-04-25T21:30:10.198Z,9.02
2018-04-25T21:32:37.779Z,9.01
2018-04-25T21:35:05.355Z,8.99
2018-04-25T21:37:33.036Z,8.95
2018-04-25T21:40:00.614Z,8.93
2018-04-25T21:42:28.191Z,8.93
2018-04-25T21:44:55.797Z,8.86
2018-04-25T21:47:23.379Z,8.86
2018-04-25T21:49:50.971Z,8.83
2018-04-25T21:52:18.559Z,8.81
2018-04-25T21:54:46.152Z,8.88
2018-04-25T21:57:13.736Z,8.79
2018-04-25T21:59:41.309Z,8.69
2018-04-25T22:02:08.882Z,8.66
2018-04-25T22:04:36.559Z,8.60
2018-04-25T22:07:04.138Z,8.51
2018-04-25T22:09:31.709Z,8.46
2018-04-25T22:11:59.347Z,8.52
2018-04-25T22:14:27.002Z,8.53
2018-04-25T22:16:54.579Z,8.47
2018-04-25T22:19:22.146Z,8.45
2018-04-25T22:21:49.787Z,8.37
2018-04-25T22:24:17.361Z,8.36
2018-04-25T22:26:44.939Z,8.32
2018-04-25T22:29:12.545Z,8.35
2018-04-25T22:31:40.117Z,8.40
2018-04-25T22:34:07.719Z,8.32
2018-04-25T22:36:35.291Z,8.32
2018-04-25T22:39:02.976Z,8.42
2018-04-25T22:41:30.544Z,8.27
2018-04-25T22:43:58.117Z,8.29
2018-04-25T22:46:25.690Z,8.25
2018-04-25T22:48:53.367Z,8.27
2018-04-25T22:51:22.759Z,8.35
2018-04-25T22:53:50.343Z,8.43
2018-04-25T22:56:17.915Z,8.65
2018-04-25T22:58:45.561Z,8.79
2018-04-25T23:01:13.201Z,8.94
2018-04-25T23:03:40.886Z,8.97
2018-04-25T23:06:08.461Z,9.07
2018-04-25T23:08:36.040Z,9.23
2018-04-25T23:11:03.621Z,9.18
2018-04-25T23:13:31.235Z,9.25
2018-04-25T23:15:58.930Z,9.19
2018-04-25T23:18:26.594Z,9.21
2018-04-25T23:20:54.172Z,9.19
2018-04-25T23:23:21.746Z,9.17
2018-04-25T23:25:49.318Z,9.12
2018-04-25T23:28:16.894Z,9.16
2018-04-25T23:30:44.518Z,9.12
2018-04-25T23:33:12.123Z,9.12
2018-04-25T23:35:39.741Z,9.15
2018-04-25T23:38:07.349Z,9.11
2018-04-25T23:40:34.927Z,9.14
2018-04-25T23:43:02.579Z,9.09
2018-04-25T23:45:30.155Z,9.24
2018-04-25T23:47:57.800Z,9.34
2018-04-25T23:50:25.381Z,9.34
2018-04-25T23:52:52.957Z,9.56
2018-04-25T23:55:20.535Z,9.52
2018-04-25T23:57:48.247Z,9.54
